Time;durP1;ratioP1;P1;durP2;ratioP2;P2;SDS_P1;SDS_P2;PMS_P1;PMS_P2;Temp;Humidity;BMP_temperature;BMP_pressure;BME280_temperature;BME280_humidity;BME280_pressure;Samples;Min_cycle;Max_cycle;Signal;HPM_P1;HPM_P2
2022/11/07 00:00:58;;;;;;;18.45;5.47;;;;;;;9.55;100.00;100588.94;5045903;28;20017;-68
2022/11/07 00:03:23;;;;;;;19.02;5.22;;;;;;;9.58;100.00;100585.41;5043592;28;20104;-68
2022/11/07 00:05:49;;;;;;;18.40;5.38;;;;;;;9.46;100.00;100588.00;5046925;28;20021;-69
2022/11/07 00:08:14;;;;;;;18.08;5.50;;;;;;;9.43;100.00;100581.81;5043177;28;20045;-75
2022/11/07 00:10:39;;;;;;;18.75;5.53;;;;;;;9.33;100.00;100590.56;5045352;28;20371;-76
2022/11/07 00:13:05;;;;;;;19.60;5.65;;;;;;;9.26;100.00;100594.03;5044871;28;20187;-75
2022/11/07 00:15:30;;;;;;;19.13;5.53;;;;;;;9.24;100.00;100603.72;5044266;28;20025;-75
2022/11/07 00:17:56;;;;;;;19.58;5.90;;;;;;;9.24;100.00;100593.16;5045887;28;20083;-75
2022/11/07 00:20:22;;;;;;;17.38;5.55;;;;;;;9.16;100.00;100597.50;5043170;28;20030;-75
2022/11/07 00:22:47;;;;;;;20.52;5.72;;;;;;;9.13;100.00;100595.75;5046242;28;20481;-75
2022/11/07 00:25:12;;;;;;;19.65;5.70;;;;;;;9.26;100.00;100599.31;5043347;28;20035;-75
2022/11/07 00:27:38;;;;;;;20.08;5.75;;;;;;;9.18;100.00;100601.94;5045142;28;20464;-75
2022/11/07 00:30:04;;;;;;;20.38;5.57;;;;;;;9.13;100.00;100610.69;5044315;28;20036;-76
2022/11/07 00:32:29;;;;;;;19.17;5.60;;;;;;;9.08;100.00;100593.06;5044303;28;20108;-75
2022/11/07 00:34:54;;;;;;;20.20;6.13;;;;;;;9.14;100.00;100594.88;5045402;28;20529;-76
2022/11/07 00:37:19;;;;;;;20.38;5.97;;;;;;;9.20;100.00;100604.56;5042637;28;20025;-75
2022/11/07 00:39:45;;;;;;;18.10;5.50;;;;;;;9.20;100.00;100604.56;5046056;28;20063;-75
2022/11/07 00:42:10;;;;;;;19.13;5.68;;;;;;;9.13;100.00;100608.94;5043118;28;20060;-76
2022/11/07 00:44:35;;;;;;;20.20;5.70;;;;;;;9.06;100.00;100596.59;5044445;28;20021;-75
2022/11/07 00:47:01;;;;;;;18.63;5.30;;;;;;;9.04;100.00;100601.84;5044769;28;20369;-75
2022/11/07 00:49:26;;;;;;;21.55;5.50;;;;;;;9.07;100.00;100606.25;5041720;28;20038;-76
2022/11/07 00:51:51;;;;;;;18.38;5.38;;;;;;;9.04;100.00;100620.31;5046103;28;20041;-75
2022/11/07 00:54:17;;;;;;;17.90;5.15;;;;;;;9.08;100.00;100613.28;5042214;28;20083;-75
2022/11/07 00:56:42;;;;;;;20.30;5.38;;;;;;;9.10;100.00;100613.28;5044972;28;20029;-74
2022/11/07 00:59:07;;;;;;;17.60;5.10;;;;;;;9.17;100.00;100609.84;5043404;28;20025;-73
2022/11/07 01:01:34;;;;;;;20.08;5.50;;;;;;;9.15;100.00;100627.41;5043696;28;20025;-74
2022/11/07 01:06:44;;;;;;;19.98;5.65;;;;;;;9.28;100.00;100615.19;5045083;28;20396;-75
2022/11/07 01:09:13;;;;;;;18.20;5.10;;;;;;;9.26;100.00;100625.69;5042926;28;20041;-74
2022/11/07 01:11:39;;;;;;;18.63;5.10;;;;;;;9.30;100.00;100611.66;5044158;28;20481;-75
2022/11/07 01:14:05;;;;;;;19.00;4.90;;;;;;;9.36;100.00;100622.28;5043633;28;20103;-70
2022/11/07 01:16:34;;;;;;;19.92;5.40;;;;;;;9.32;100.00;100625.75;5043344;28;20104;-70
2022/11/07 01:19:00;;;;;;;19.45;5.00;;;;;;;9.27;100.00;100638.03;5044147;28;20028;-71
2022/11/07 01:21:25;;;;;;;17.17;5.15;;;;;;;9.27;100.00;100638.03;5042310;28;20067;-71
2022/11/07 01:23:51;;;;;;;19.95;5.30;;;;;;;9.23;100.00;100646.78;5044530;28;20021;-70
2022/11/07 01:26:16;;;;;;;18.20;5.32;;;;;;;9.25;100.00;100645.06;5037791;28;20025;-70
2022/11/07 01:28:42;;;;;;;16.88;5.05;;;;;;;9.24;100.00;100643.28;5044239;28;20025;-71
2022/11/07 01:31:09;;;;;;;17.42;5.03;;;;;;;9.29;100.00;100646.84;5042930;28;20021;-70
2022/11/07 01:33:36;;;;;;;18.73;5.07;;;;;;;9.28;100.00;100641.56;5043276;28;20029;-70
2022/11/07 01:36:03;;;;;;;18.55;5.00;;;;;;;9.29;100.00;100649.50;5043722;28;20025;-73
2022/11/07 01:38:29;;;;;;;18.23;5.13;;;;;;;9.25;100.00;100647.69;5042463;28;20116;-72
2022/11/07 01:43:49;;;;;;;17.88;5.25;;;;;;;9.22;100.00;100645.03;5043619;28;20113;-71
2022/11/07 01:46:15;;;;;;;17.55;5.05;;;;;;;9.19;100.00;100652.94;5041766;28;20116;-70
2022/11/07 01:48:45;;;;;;;18.30;5.07;;;;;;;9.27;100.00;100645.06;5044001;28;20420;-70
2022/11/07 01:51:12;;;;;;;19.80;5.40;;;;;;;9.33;100.00;100648.59;5042064;28;20028;-69
2022/11/07 01:53:38;;;;;;;20.55;5.50;;;;;;;9.49;100.00;100654.00;5043408;28;20108;-73
2022/11/07 01:56:08;;;;;;;19.02;5.30;;;;;;;9.40;100.00;100650.41;5043333;28;20357;-68
2022/11/07 01:58:33;;;;;;;18.90;5.03;;;;;;;9.45;100.00;100654.84;5043029;28;20022;-68
2022/11/07 02:00:59;;;;;;;18.52;5.00;;;;;;;9.42;100.00;100653.97;5043499;28;20029;-68
2022/11/07 02:03:25;;;;;;;18.40;5.45;;;;;;;9.39;100.00;100646.03;5041562;28;20083;-68
2022/11/07 02:05:58;;;;;;;18.83;5.05;;;;;;;9.48;100.00;100660.13;5044637;28;20029;-68
2022/11/07 02:08:26;;;;;;;19.75;5.20;;;;;;;9.50;100.00;100656.63;5037849;28;20492;-68
2022/11/07 02:10:52;;;;;;;19.38;5.13;;;;;;;9.47;100.00;100656.63;5044541;28;20032;-68
2022/11/07 02:13:24;;;;;;;20.48;5.18;;;;;;;9.53;100.00;100661.06;5037102;28;20402;-68
2022/11/07 02:15:50;;;;;;;20.08;5.28;;;;;;;9.49;100.00;100661.91;5037092;28;20034;-69
2022/11/07 02:18:15;;;;;;;21.48;5.28;;;;;;;9.42;100.00;100653.06;5044266;28;20021;-68
2022/11/07 02:20:40;;;;;;;18.67;5.10;;;;;;;9.48;100.00;100665.41;5041686;28;20025;-68
2022/11/07 02:23:15;;;;;;;20.35;5.13;;;;;;;9.53;100.00;100667.22;5042556;28;20483;-68
2022/11/07 02:25:41;;;;;;;19.75;5.20;;;;;;;9.57;100.00;100660.22;5041540;28;20036;-68
2022/11/07 02:28:09;;;;;;;17.85;4.90;;;;;;;9.57;100.00;100654.94;5042834;28;20026;-68
2022/11/07 02:30:34;;;;;;;19.15;4.93;;;;;;;9.53;100.00;100661.94;5042376;28;20029;-68
2022/11/07 02:33:00;;;;;;;21.15;5.28;;;;;;;9.43;100.00;100655.72;5041647;28;20482;-69
2022/11/07 02:35:36;;;;;;;20.92;5.18;;;;;;;9.45;100.00;100663.66;5047459;28;20357;-68
2022/11/07 02:38:05;;;;;;;20.02;5.10;;;;;;;9.45;100.00;100668.03;5046449;28;20031;-68
2022/11/07 02:40:31;;;;;;;19.45;5.10;;;;;;;9.52;100.00;100659.28;5047075;28;20030;-68
2022/11/07 02:42:58;;;;;;;21.88;5.28;;;;;;;9.53;100.00;100661.06;5045256;28;20061;-68
2022/11/07 02:45:33;;;;;;;19.88;4.97;;;;;;;9.56;100.00;100661.06;5048138;28;20476;-69
2022/11/07 02:47:58;;;;;;;19.02;5.10;;;;;;;9.55;100.00;100643.47;5045489;28;20052;-68
2022/11/07 02:50:24;;;;;;;17.83;5.05;;;;;;;9.50;100.00;100650.50;5047820;28;20033;-68
2022/11/07 02:52:49;;;;;;;19.58;5.32;;;;;;;9.55;100.00;100649.66;5043683;28;20090;-68
2022/11/07 02:55:15;;;;;;;19.92;5.03;;;;;;;9.52;100.00;100662.81;5047474;28;20063;-67
2022/11/07 02:57:40;;;;;;;20.45;5.28;;;;;;;9.48;100.00;100652.22;5045470;28;20025;-73
2022/11/07 03:00:08;;;;;;;21.10;5.45;;;;;;;9.47;100.00;100650.47;5046380;28;20025;-73
2022/11/07 03:02:34;;;;;;;20.77;5.28;;;;;;;9.54;100.00;100647.88;5046084;28;20109;-74
2022/11/07 03:04:59;;;;;;;20.52;5.18;;;;;;;9.57;100.00;100642.59;5045204;28;20025;-74
2022/11/07 03:07:25;;;;;;;21.30;5.20;;;;;;;9.51;100.00;100647.84;5047628;28;20135;-73
2022/11/07 03:09:50;;;;;;;19.75;5.10;;;;;;;9.52;100.00;100654.00;5044176;28;20124;-74
2022/11/07 03:12:15;;;;;;;20.00;5.03;;;;;;;9.46;100.00;100638.16;5047249;28;20036;-74
2022/11/07 03:14:41;;;;;;;19.92;5.03;;;;;;;9.50;100.00;100645.22;5045319;28;20143;-74
2022/11/07 03:17:06;;;;;;;21.20;4.93;;;;;;;9.49;100.00;100654.00;5046400;28;20362;-74
2022/11/07 03:19:31;;;;;;;19.98;5.20;;;;;;;9.43;100.00;100660.97;5046064;28;20032;-74
2022/11/07 03:21:57;;;;;;;17.95;5.00;;;;;;;9.48;100.00;100657.50;5044796;28;20423;-74
2022/11/07 03:24:22;;;;;;;20.40;5.07;;;;;;;9.50;100.00;100661.03;5047379;28;20480;-74
2022/11/07 03:26:47;;;;;;;20.55;5.10;;;;;;;9.46;100.00;100651.34;5039011;28;20041;-73
2022/11/07 03:29:13;;;;;;;20.02;4.80;;;;;;;9.40;100.00;100646.91;5046585;28;20028;-74
2022/11/07 03:31:38;;;;;;;21.05;5.13;;;;;;;9.43;100.00;100645.16;5045120;28;20380;-75
2022/11/07 03:34:03;;;;;;;20.50;4.90;;;;;;;9.47;100.00;100634.66;5045574;28;20022;-74
2022/11/07 03:36:29;;;;;;;19.20;4.85;;;;;;;9.50;100.00;100646.09;5046261;28;20029;-74
2022/11/07 03:38:54;;;;;;;19.95;4.70;;;;;;;9.51;100.00;100657.50;5043851;28;20025;-74
2022/11/07 03:41:19;;;;;;;18.75;4.65;;;;;;;9.60;100.00;100647.91;5047582;28;20464;-74
2022/11/07 03:43:45;;;;;;;21.23;4.93;;;;;;;9.63;100.00;100657.59;5044020;28;20543;-69
2022/11/07 03:46:11;;;;;;;21.17;4.50;;;;;;;9.60;100.00;100662.84;5045463;28;20056;-68
2022/11/07 03:48:37;;;;;;;20.30;4.55;;;;;;;9.67;100.00;100654.09;5045167;28;20357;-68
2022/11/07 03:51:04;;;;;;;20.58;4.50;;;;;;;9.74;100.00;100666.47;5044643;28;20092;-68
2022/11/07 03:53:29;;;;;;;18.63;4.45;;;;;;;9.72;100.00;100662.91;5046226;28;20127;-68
2022/11/07 03:55:55;;;;;;;20.40;4.57;;;;;;;9.74;100.00;100650.63;5043848;28;20496;-68
2022/11/07 03:58:22;;;;;;;18.45;4.43;;;;;;;9.77;100.00;100665.56;5046675;28;20021;-68
2022/11/07 04:00:47;;;;;;;20.90;4.72;;;;;;;9.72;100.00;100655.00;5042127;28;20087;-68
2022/11/07 04:03:12;;;;;;;21.30;4.93;;;;;;;9.80;100.00;100654.13;5046058;28;20025;-69
2022/11/07 04:05:38;;;;;;;21.95;4.75;;;;;;;9.77;100.00;100655.00;5044510;28;20047;-68
2022/11/07 04:08:03;;;;;;;22.02;4.90;;;;;;;9.82;100.00;100652.41;5044379;28;20400;-68
2022/11/07 04:10:29;;;;;;;19.33;4.15;;;;;;;9.82;100.00;100653.28;5045863;28;20037;-68
2022/11/07 04:18:23;;;;;;;21.52;4.55;;;;;;;9.85;100.00;100662.97;5039765;28;20037;-68
2022/11/07 04:20:49;;;;;;;21.35;4.55;;;;;;;9.86;100.00;100654.16;5046606;28;20025;-68
2022/11/07 04:23:14;;;;;;;22.52;4.93;;;;;;;9.77;100.00;100655.00;5043671;28;20063;-74
2022/11/07 04:28:23;;;;;;;25.40;4.60;;;;;;;9.62;100.00;100655.81;5039419;28;20101;-73
2022/11/07 04:30:48;;;;;;;23.48;4.53;;;;;;;9.56;100.00;100663.72;5046253;28;20029;-74
2022/11/07 04:33:14;;;;;;;21.17;4.60;;;;;;;9.59;100.00;100658.44;5043189;28;20448;-74
2022/11/07 04:35:39;;;;;;;22.90;4.45;;;;;;;9.62;100.00;100670.78;5043414;28;20033;-74
2022/11/07 04:38:04;;;;;;;25.13;4.85;;;;;;;9.59;100.00;100666.34;5044650;28;20035;-74
2022/11/07 04:40:30;;;;;;;23.25;4.85;;;;;;;9.60;100.00;100663.72;5043492;28;20030;-74
2022/11/07 04:42:56;;;;;;;21.25;4.47;;;;;;;9.62;100.00;100665.50;5045709;28;20040;-71
2022/11/07 04:45:21;;;;;;;23.90;4.40;;;;;;;9.58;100.00;100667.22;5042660;28;20105;-74
2022/11/07 04:47:47;;;;;;;22.23;4.70;;;;;;;9.57;100.00;100666.34;5045431;28;20071;-74
2022/11/07 04:50:14;;;;;;;18.90;4.20;;;;;;;9.67;100.00;100666.41;5043310;28;20364;-74
2022/11/07 04:52:40;;;;;;;20.13;4.45;;;;;;;9.69;100.00;100676.09;5044543;28;20041;-73
2022/11/07 04:55:08;;;;;;;20.77;4.80;;;;;;;9.72;100.00;100673.47;5043924;28;20025;-74
2022/11/07 04:57:34;;;;;;;20.60;4.50;;;;;;;9.75;100.00;100662.91;5042662;28;20028;-73
2022/11/07 04:59:59;;;;;;;22.10;4.38;;;;;;;9.81;100.00;100672.63;5044848;28;20025;-74
2022/11/07 05:02:25;;;;;;;23.35;4.97;;;;;;;9.79;100.00;100676.16;5042080;28;20480;-74
2022/11/07 05:04:51;;;;;;;20.13;4.43;;;;;;;9.86;100.00;100670.00;5045850;28;20025;-74
2022/11/07 05:07:18;;;;;;;18.38;3.97;;;;;;;9.86;100.00;100670.91;5042202;28;20423;-74
2022/11/07 05:09:43;;;;;;;22.15;4.72;;;;;;;9.90;100.00;100672.69;5044827;28;20029;-73
2022/11/07 05:12:08;;;;;;;20.88;4.30;;;;;;;9.89;100.00;100675.31;5043438;28;20084;-74
2022/11/07 05:14:34;;;;;;;22.48;4.25;;;;;;;9.86;100.00;100677.91;5043163;28;20017;-73
2022/11/07 05:17:00;;;;;;;20.88;4.32;;;;;;;9.84;100.00;100684.97;5044458;28;20033;-73
2022/11/07 05:19:26;;;;;;;22.02;4.45;;;;;;;9.91;100.00;100681.47;5042172;28;20025;-73
2022/11/07 05:23:11;;;;;;;22.90;4.38;;;;;;;9.86;100.00;100683.19;5045223;28;20021;-74
2022/11/07 05:24:37;;;;;;;23.33;4.22;;;;;;;9.92;100.00;100677.97;5040682;28;20040;-74
2022/11/07 05:27:02;;;;;;;20.70;4.07;;;;;;;9.89;100.00;100683.25;5043988;28;20028;-73
2022/11/07 05:29:27;;;;;;;22.10;4.38;;;;;;;9.91;100.00;100676.19;5042414;28;20033;-72
2022/11/07 05:31:52;;;;;;;23.90;4.63;;;;;;;9.88;100.00;100686.75;5044940;28;20025;-72
2022/11/07 05:34:18;;;;;;;23.83;4.53;;;;;;;9.88;100.00;100684.97;5041854;28;20025;-73
2022/11/07 05:36:43;;;;;;;23.58;4.40;;;;;;;9.94;100.00;100690.28;5043209;28;20025;-73
2022/11/07 05:39:08;;;;;;;22.15;4.30;;;;;;;10.01;100.00;100691.22;5043169;28;20021;-74
2022/11/07 05:41:34;;;;;;;22.33;4.20;;;;;;;9.97;100.00;100688.56;5042876;28;20079;-73
2022/11/07 05:43:59;;;;;;;22.05;4.30;;;;;;;9.97;100.00;100688.56;5044171;28;20025;-74
2022/11/07 05:46:25;;;;;;;22.85;4.35;;;;;;;9.94;100.00;100684.13;5041361;28;20021;-74
2022/11/07 05:48:50;;;;;;;22.73;4.85;;;;;;;9.90;100.00;100683.25;5044855;28;20031;-73
2022/11/07 05:51:15;;;;;;;21.05;3.97;;;;;;;9.93;100.00;100682.34;5041736;28;20029;-73
2022/11/07 05:53:41;;;;;;;20.30;4.03;;;;;;;10.04;100.00;100674.50;5043448;28;20032;-73
2022/11/07 05:56:06;;;;;;;22.60;4.35;;;;;;;10.10;100.00;100685.06;5043183;28;20048;-72
2022/11/07 05:58:31;;;;;;;19.45;4.18;;;;;;;10.07;100.00;100685.06;5042099;28;20116;-73
2022/11/07 06:01:04;;;;;;;21.02;4.13;;;;;;;10.03;100.00;100693.84;5044485;28;20029;-72
2022/11/07 06:03:30;;;;;;;22.85;4.30;;;;;;;10.06;100.00;100691.22;5041835;28;20052;-73
2022/11/07 06:05:56;;;;;;;22.00;4.32;;;;;;;10.06;100.00;100683.28;5044523;28;20025;-73
2022/11/07 06:08:21;;;;;;;22.95;4.47;;;;;;;10.09;100.00;100689.50;5040429;28;20068;-73
2022/11/07 06:10:46;;;;;;;23.83;4.30;;;;;;;10.12;100.00;100693.91;5044052;28;20098;-73
2022/11/07 06:13:13;;;;;;;20.92;4.50;;;;;;;10.19;100.00;100689.50;5041911;28;20029;-73
2022/11/07 06:15:40;;;;;;;19.98;4.13;;;;;;;10.18;100.00;100687.75;5042863;28;20080;-73
2022/11/07 06:18:07;;;;;;;20.65;4.25;;;;;;;10.18;100.00;100685.09;5042881;28;20490;-69
2022/11/07 06:20:33;;;;;;;23.13;4.10;;;;;;;10.14;100.00;100693.91;5042118;28;20120;-67
2022/11/07 06:23:05;;;;;;;21.13;4.15;;;;;;;10.14;100.00;100688.63;5043534;28;20021;-68
2022/11/07 06:25:31;;;;;;;21.17;4.40;;;;;;;10.13;100.00;100700.94;5042042;28;20358;-69
2022/11/07 06:28:05;;;;;;;21.05;4.35;;;;;;;10.19;100.00;100697.44;5043791;28;20108;-68
2022/11/07 06:30:31;;;;;;;21.25;4.60;;;;;;;10.25;100.00;100706.28;5041470;28;20386;-68
2022/11/07 06:33:02;;;;;;;24.17;4.00;;;;;;;10.26;100.00;100700.09;5043926;28;20117;-68
2022/11/07 06:35:28;;;;;;;19.70;4.13;;;;;;;10.28;100.00;100705.38;5041291;28;20037;-68
2022/11/07 06:37:53;;;;;;;22.30;4.15;;;;;;;10.37;100.00;100705.47;5043978;28;20028;-68
2022/11/07 06:40:18;;;;;;;20.92;4.20;;;;;;;10.38;100.00;100699.31;5040848;28;20022;-68
2022/11/07 06:42:44;;;;;;;21.35;4.22;;;;;;;10.39;100.00;100708.97;5043393;28;20377;-68
2022/11/07 06:45:10;;;;;;;22.95;4.38;;;;;;;10.45;100.00;100703.72;5042488;28;20028;-67
2022/11/07 06:47:35;;;;;;;21.42;4.50;;;;;;;10.39;100.00;100703.69;5041807;28;20026;-68
2022/11/07 06:50:01;;;;;;;21.10;4.25;;;;;;;10.29;100.00;100709.81;5043154;28;20033;-68
2022/11/07 06:52:26;;;;;;;21.23;4.50;;;;;;;10.26;100.00;100720.38;5040694;28;20036;-68
2022/11/07 06:54:52;;;;;;;20.95;4.55;;;;;;;10.25;100.00;100724.78;5044075;28;20025;-68
2022/11/07 06:57:17;;;;;;;21.65;4.50;;;;;;;10.32;100.00;100722.16;5040666;28;20033;-68
2022/11/07 06:59:42;;;;;;;21.40;4.50;;;;;;;10.36;100.00;100708.97;5040678;28;20037;-66
2022/11/07 07:02:11;;;;;;;21.77;4.43;;;;;;;10.43;100.00;100731.03;5046789;28;20364;-66
2022/11/07 07:04:37;;;;;;;23.52;4.90;;;;;;;10.40;100.00;100723.97;5047482;28;20068;-66
2022/11/07 07:07:02;;;;;;;22.38;4.60;;;;;;;10.37;100.00;100721.31;5046062;28;20060;-66
2022/11/07 07:09:29;;;;;;;19.25;3.90;;;;;;;10.42;100.00;100723.97;5041549;28;20081;-66
2022/11/07 07:11:54;;;;;;;20.17;3.92;;;;;;;10.45;100.00;100730.13;5046111;28;20068;-66
2022/11/07 07:14:19;;;;;;;20.85;4.07;;;;;;;10.42;100.00;100726.63;5027873;28;20171;-66
2022/11/07 07:16:45;;;;;;;22.90;4.22;;;;;;;10.43;100.00;100731.91;5045929;28;20098;-65
2022/11/07 07:19:11;;;;;;;21.25;4.25;;;;;;;10.52;100.00;100724.88;5046612;28;20029;-65
2022/11/07 07:21:37;;;;;;;21.77;4.30;;;;;;;10.59;100.00;100746.03;5044985;28;20029;-65
2022/11/07 07:24:02;;;;;;;21.00;3.95;;;;;;;10.65;100.00;100742.53;5051861;28;20087;-66
2022/11/07 07:26:28;;;;;;;20.25;4.43;;;;;;;10.69;100.00;100751.34;5050048;28;20066;-65
2022/11/07 07:28:53;;;;;;;23.30;4.45;;;;;;;10.66;100.00;100741.69;5049939;28;20033;-65
2022/11/07 07:31:27;;;;;;;22.88;4.65;;;;;;;10.76;100.00;100740.81;5045294;28;20025;-65
2022/11/07 07:33:53;;;;;;;20.30;3.97;;;;;;;10.81;100.00;100749.63;5049289;28;20063;-65
2022/11/07 07:36:20;;;;;;;19.45;4.03;;;;;;;10.82;100.00;100746.09;5052308;28;20025;-67
2022/11/07 07:38:45;;;;;;;22.45;4.03;;;;;;;10.85;100.00;100749.63;5052977;28;20021;-65
2022/11/07 07:41:11;;;;;;;20.45;4.20;;;;;;;10.93;100.00;100763.75;5053012;28;20028;-65
2022/11/07 07:43:36;;;;;;;23.35;4.28;;;;;;;10.95;100.00;100756.69;5053853;28;20464;-65
2022/11/07 07:46:04;;;;;;;22.83;3.80;;;;;;;10.97;100.00;100761.09;5053868;28;20150;-65
2022/11/07 07:48:30;;;;;;;19.65;4.22;;;;;;;11.07;100.00;100762.00;5053633;28;20037;-64
2022/11/07 07:50:56;;;;;;;20.58;4.03;;;;;;;11.13;100.00;100771.72;5046214;28;20072;-66
2022/11/07 07:53:22;;;;;;;21.95;4.03;;;;;;;11.08;100.00;100774.38;5047519;28;20453;-64
2022/11/07 07:55:47;;;;;;;21.33;3.80;;;;;;;11.14;100.00;100778.78;5047655;28;20048;-64
2022/11/07 07:58:12;;;;;;;21.25;4.30;;;;;;;11.19;100.00;100773.50;5048440;28;20021;-65
2022/11/07 08:00:39;;;;;;;22.10;4.30;;;;;;;11.27;100.00;100777.91;5046850;28;20032;-67
2022/11/07 08:03:10;;;;;;;19.23;4.00;;;;;;;11.47;100.00;100771.72;5042315;28;20024;-66
2022/11/07 08:05:38;;;;;;;22.75;4.10;;;;;;;11.52;100.00;100797.31;5047754;28;20386;-65
2022/11/07 08:08:05;;;;;;;21.45;4.18;;;;;;;11.54;100.00;100784.06;5047634;28;20045;-65
2022/11/07 08:10:31;;;;;;;19.70;3.60;;;;;;;11.54;100.00;100775.25;5049477;28;20048;-65
2022/11/07 08:12:57;;;;;;;19.70;3.85;;;;;;;11.54;100.00;100778.78;5045722;28;20083;-65
2022/11/07 08:15:22;;;;;;;21.00;3.60;;;;;;;11.52;100.00;100776.13;5045643;28;20021;-66
2022/11/07 08:17:48;;;;;;;19.02;3.80;;;;;;;11.61;100.00;100777.88;5045459;28;20047;-66
2022/11/07 08:20:15;;;;;;;21.10;4.13;;;;;;;11.65;100.00;100789.38;5043948;28;20021;-67
2022/11/07 08:22:41;;;;;;;20.80;3.72;;;;;;;11.78;100.00;100783.16;5051286;28;20029;-67
2022/11/07 08:25:09;;;;;;;21.50;4.25;;;;;;;11.92;100.00;100784.91;5053599;28;20750;-67
2022/11/07 08:27:34;;;;;;;20.10;3.90;;;;;;;11.96;100.00;100766.38;5051312;28;20502;-66
2022/11/07 08:30:00;;;;;;;20.13;3.72;;;;;;;12.00;100.00;100778.72;5051054;28;20068;-66
2022/11/07 08:32:29;;;;;;;21.65;4.00;;;;;;;12.07;100.00;100789.31;5046146;28;20029;-66
2022/11/07 08:34:54;;;;;;;20.02;3.88;;;;;;;11.93;100.00;100791.97;5051281;28;20028;-66
2022/11/07 08:37:20;;;;;;;19.73;4.13;;;;;;;11.85;100.00;100790.22;5050954;28;20025;-68
2022/11/07 08:39:45;;;;;;;20.70;3.97;;;;;;;11.89;100.00;100799.03;5047653;28;20724;-68
2022/11/07 08:42:11;;;;;;;19.88;3.90;;;;;;;11.85;100.00;100802.56;5048953;28;20214;-67
2022/11/07 08:44:36;;;;;;;21.00;4.10;;;;;;;11.97;100.00;100809.63;5050177;28;20025;-68
2022/11/07 08:47:02;;;;;;;21.52;3.67;;;;;;;12.06;100.00;100798.13;5044897;28;20043;-68
2022/11/07 08:49:28;;;;;;;21.80;4.38;;;;;;;12.07;100.00;100806.06;5046027;28;20388;-68
2022/11/07 08:51:53;;;;;;;20.83;4.00;;;;;;;12.11;100.00;100813.13;5042948;28;20030;-68
2022/11/07 08:54:20;;;;;;;20.38;3.90;;;;;;;12.15;100.00;100806.06;5044616;28;20036;-68
2022/11/07 08:56:45;;;;;;;20.90;4.00;;;;;;;12.20;100.00;100822.84;5044179;28;20017;-68
2022/11/07 08:59:11;;;;;;;21.35;4.00;;;;;;;12.23;100.00;100821.94;5043428;28;20036;-68
2022/11/07 09:01:36;;;;;;;21.75;4.25;;;;;;;12.23;100.00;100836.06;5045139;28;20019;-68
2022/11/07 09:04:02;;;;;;;20.20;3.95;;;;;;;12.21;100.00;100830.78;5041046;28;20029;-68
2022/11/07 09:06:27;;;;;;;19.30;3.97;;;;;;;12.17;100.00;100834.34;5043855;28;20037;-68
2022/11/07 09:08:52;;;;;;;21.52;4.47;;;;;;;12.14;100.00;100839.63;5042448;28;20116;-68
2022/11/07 09:11:20;;;;;;;19.38;3.75;;;;;;;12.18;100.00;100838.75;5044170;28;20084;-68
2022/11/07 09:13:46;;;;;;;19.33;4.03;;;;;;;12.13;100.00;100834.34;5042182;28;20021;-68
2022/11/07 09:16:11;;;;;;;21.13;3.97;;;;;;;12.08;100.00;100838.78;5042872;28;20028;-68
2022/11/07 09:18:37;;;;;;;20.48;3.90;;;;;;;12.15;100.00;100844.03;5045271;28;20033;-68
2022/11/07 09:21:02;;;;;;;21.88;4.90;;;;;;;12.21;100.00;100857.28;5042101;28;20026;-69
2022/11/07 09:23:28;;;;;;;20.27;4.13;;;;;;;12.20;100.00;100847.59;5044987;28;20102;-68
2022/11/07 09:25:53;;;;;;;19.65;4.13;;;;;;;12.22;100.00;100847.56;5042550;28;20033;-68
2022/11/07 09:28:19;;;;;;;19.30;3.88;;;;;;;12.25;100.00;100852.00;5043823;28;20029;-68
2022/11/07 09:30:44;;;;;;;20.52;3.80;;;;;;;12.21;100.00;100851.09;5043656;28;20530;-68
2022/11/07 09:33:09;;;;;;;21.70;4.30;;;;;;;12.24;100.00;100850.22;5042521;28;20025;-68
2022/11/07 09:35:35;;;;;;;20.05;3.75;;;;;;;12.26;100.00;100861.69;5044676;28;20027;-71
2022/11/07 09:38:00;;;;;;;20.42;4.18;;;;;;;12.27;100.00;100853.72;5041838;28;20029;-70
2022/11/07 09:41:04;;;;;;;19.65;4.22;;;;;;;12.25;100.00;100849.34;5044575;28;20020;-70
2022/11/07 09:44:06;;;;;;;19.40;3.85;;;;;;;12.41;100.00;100858.09;5037869;28;20045;-70
2022/11/07 09:46:37;;;;;;;16.52;3.70;;;;;;;12.35;100.00;100857.25;5041470;28;20033;-71
2022/11/07 09:49:11;;;;;;;17.88;4.10;;;;;;;12.40;100.00;100862.53;5037778;28;20143;-69
2022/11/07 09:51:45;;;;;;;20.08;4.10;;;;;;;12.46;100.00;100864.28;5038670;28;20386;-70
2022/11/07 09:54:21;;;;;;;21.25;4.00;;;;;;;12.48;100.00;100868.72;5043645;28;20028;-70
2022/11/07 09:56:47;;;;;;;21.65;4.03;;;;;;;12.49;100.00;100857.19;5042832;28;20032;-70
2022/11/07 09:59:38;;;;;;;20.90;3.80;;;;;;;12.58;100.00;100871.31;5043548;28;20041;-71
2022/11/07 10:02:13;;;;;;;20.17;4.03;;;;;;;12.61;100.00;100866.00;5037356;28;20504;-71
2022/11/07 10:04:39;;;;;;;19.67;3.97;;;;;;;12.60;100.00;100864.25;5039075;28;20033;-70
2022/11/07 10:07:20;;;;;;;21.30;3.88;;;;;;;12.59;100.00;100863.38;5043316;28;20903;-69
2022/11/07 10:09:51;;;;;;;19.25;3.95;;;;;;;12.48;100.00;100870.47;5042324;28;20049;-71
2022/11/07 10:12:28;;;;;;;20.05;3.75;;;;;;;12.37;100.00;100862.56;5042483;28;20103;-71
2022/11/07 10:15:31;;;;;;;20.70;4.20;;;;;;;12.42;100.00;100862.53;5043525;28;20330;-70
2022/11/07 10:18:11;;;;;;;20.08;3.65;;;;;;;12.44;100.00;100869.59;5020773;28;20037;-70
2022/11/07 10:21:02;;;;;;;19.15;3.60;;;;;;;12.51;100.00;100857.22;5019208;28;20512;-70
2022/11/07 10:24:09;;;;;;;18.90;3.70;;;;;;;12.60;100.00;100877.53;5018729;28;20030;-70
2022/11/07 10:26:35;;;;;;;20.52;4.00;;;;;;;12.69;100.00;100872.16;4956743;28;20039;-66
2022/11/07 10:29:13;;;;;;;19.83;3.90;;;;;;;12.86;100.00;100882.72;4959447;28;20039;-65
2022/11/07 10:31:43;;;;;;;19.50;3.72;;;;;;;12.90;100.00;100876.50;4957891;28;20035;-65
2022/11/07 10:34:22;;;;;;;18.85;3.47;;;;;;;13.02;100.00;100875.56;4957659;28;20039;-65
2022/11/07 10:36:47;;;;;;;19.63;3.95;;;;;;;13.10;100.00;100868.44;4962404;28;20098;-65
2022/11/07 10:39:17;;;;;;;20.85;3.90;;;;;;;13.17;100.00;100890.53;4960134;28;20035;-65
2022/11/07 10:41:51;;;;;;;19.42;3.60;;;;;;;13.24;100.00;100892.25;4960464;28;20051;-66
2022/11/07 10:44:23;;;;;;;21.13;4.38;;;;;;;13.30;100.00;100899.31;4959666;28;20475;-66
2022/11/07 10:46:49;;;;;;;19.55;3.92;;;;;;;13.32;100.00;100881.56;4961512;28;20085;-65
2022/11/07 10:49:25;;;;;;;22.52;4.13;;;;;;;13.69;100.00;100891.97;4943837;28;20051;-65
2022/11/07 10:51:51;;;;;;;19.15;3.38;;;;;;;13.97;100.00;100897.94;4961127;28;20031;-65
2022/11/07 10:54:28;;;;;;;22.67;4.22;;;;;;;13.82;100.00;100888.34;4965367;28;20083;-66
2022/11/07 10:57:09;;;;;;;19.15;3.63;;;;;;;13.71;100.00;100899.03;4959817;28;20039;-65
2022/11/07 10:59:43;;;;;;;20.02;3.95;;;;;;;13.59;100.00;100897.34;4963252;28;20089;-64
2022/11/07 11:02:16;;;;;;;19.02;3.63;;;;;;;13.70;100.00;100901.69;4978168;28;20034;-67
2022/11/07 11:04:48;;;;;;;19.90;3.90;;;;;;;13.66;100.00;100907.91;5048361;28;20104;-66
2022/11/07 11:07:13;;;;;;;19.73;3.40;;;;;;;13.55;100.00;100890.28;5047555;28;20033;-66
2022/11/07 11:09:50;;;;;;;18.88;3.78;;;;;;;13.51;100.00;100899.16;5043089;28;20054;-66
2022/11/07 11:12:23;;;;;;;21.90;4.10;;;;;;;13.50;100.00;100894.78;5046113;28;20042;-66
2022/11/07 11:14:48;;;;;;;22.90;4.00;;;;;;;13.56;100.00;100892.06;5047150;28;20021;-66
2022/11/07 11:17:24;;;;;;;21.77;3.97;;;;;;;13.59;100.00;100881.41;5046376;28;20028;-70
2022/11/07 11:19:52;;;;;;;20.02;3.85;;;;;;;13.62;100.00;100884.97;5043879;28;20078;-71
2022/11/07 11:22:22;;;;;;;22.52;3.90;;;;;;;13.59;100.00;100893.81;5047809;28;20063;-69
2022/11/07 11:25:02;;;;;;;21.85;3.85;;;;;;;13.69;100.00;100873.38;5046616;28;20033;-70
2022/11/07 11:27:32;;;;;;;21.25;4.07;;;;;;;13.66;100.00;100876.06;5044349;28;20144;-70
2022/11/07 11:30:05;;;;;;;19.92;3.60;;;;;;;13.75;100.00;100878.66;5040444;28;20030;-71